CYED/YED METAR and TAF weather

Enter ICAO airport designator
Station Type Date Time Source
CYED METAR 2023/02/02 22:26 UTC NOAA

CYED 022226Z 17013KT 15SM FEW020 BKN060 BKN080 M14/M17 A3000 RMK SC1SC5AC2 DENSITY ALT -1173FT LAST OBS /NEXT 061600 UTC SLP221


Station Type Date Time Source
CYED Decoded METAR 2023/02/02 22:26 UTC NOAA

Edmonton Namao Alta., Canada (CYED) 53-40N 113-28W 688M
Feb 02, 2023 - 05:26 PM EST / 2023.02.02 2226 UTC
Wind: from the S (170 degrees) at 15 MPH (13 KT):0
Visibility: 15 mile(s):0
Sky conditions: mostly cloudy
Temperature: 6 F (-14 C)
Windchill: -11 F (-24 C):2
Dew Point: 1 F (-17 C)
Relative Humidity: 77%
Pressure (altimeter): 30 in. Hg (1015 hPa)
ob: CYED 022226Z 17013KT 15SM FEW020 BKN060 BKN080 M14/M17 A3000 RMK SC1SC5AC2 DENSITY ALT -1173FT LAST OBS /NEXT 061600 UTC SLP221
cycle: 22

Station Type Date Time Source
CYED TAF 2023/02/02 18:42 UTC NOAA

TAF CYED 021740Z 0218/0306 15015KT 6SM -SN SCT012 OVC030
TEMPO 0218/0220 2SM -SN SCT008 BKN012
FM022000 15015KT P6SM -SN BKN020
TEMPO 0220/0223 SCT020 OVC040
FM022300 15010KT P6SM FEW020 BKN060
FM030300 17005KT P6SM SCT100
RMK NXT FCST BY 030000Z

Example: see airport list